Погода Зиборовкана 2 недели

Белгородская область, Россия

15 - 28 июля
  • 15июля
    Сегодня
    +22°
    +35°
    Практически безоблачно
    ВремяПогодаТемператураВлажностьДавлениеВетер, м/сВероятность осадков
    00:00Ясно и безоблачно+26°C73 %748 мм1.6 м/с2 %
    03:00Ясно и безоблачно+24°C78 %748 мм1.9 м/с2 %
    06:00Ясно и безоблачно+24°C80 %749 мм1.7 м/с2 %
    09:00Ясно и безоблачно+30°C60 %749 мм2.3 м/с2 %
    12:00Практически безоблачно+34°C44 %749 мм4.2 м/с2 %
    15:00Практически безоблачно+35°C38 %748 мм5.1 м/с1 %
    18:00Практически безоблачно+34°C36 %748 мм4.6 м/с2 %
    21:00Ясно и безоблачно+29°C49 %748 мм3.1 м/с2 %
  • 16июля
    Вторник
    +22°
    +34°
    Ясно и безоблачно
    ВремяПогодаТемператураВлажностьДавлениеВетер, м/сВероятность осадков
    00:00Ясно и безоблачно+26°C62 %748 мм2.6 м/с2 %
    03:00Ясно и безоблачно+24°C76 %749 мм2.8 м/с2 %
    06:00Ясно и безоблачно+23°C80 %749 мм2.0 м/с2 %
    09:00Ясно и безоблачно+29°C59 %749 мм3.1 м/с2 %
    12:00Ясно и безоблачно+32°C44 %749 мм4.3 м/с2 %
    15:00Ясно и безоблачно+34°C36 %749 мм5.1 м/с2 %
    18:00Практически безоблачно+33°C38 %748 мм4.3 м/с7 %
    21:00Практически безоблачно+29°C60 %749 мм3.1 м/с2 %
  • 17июля
    Среда
    +23°
    +35°
    Ясно и безоблачно
    ВремяПогодаТемператураВлажностьДавлениеВетер, м/сВероятность осадков
    00:00Ясно и безоблачно+26°C72 %749 мм2.5 м/с2 %
    03:00Ясно и безоблачно+24°C82 %750 мм2.6 м/с2 %
    06:00Ясно и безоблачно+23°C81 %750 мм1.9 м/с2 %
    09:00Ясно и безоблачно+30°C58 %750 мм2.5 м/с2 %
    12:00Ясно и безоблачно+33°C45 %750 мм3.2 м/с2 %
    15:00Ясно и безоблачно+35°C39 %750 мм4.3 м/с1 %
    18:00Ясно и безоблачно+34°C40 %749 мм3.3 м/с2 %
    21:00Ясно и безоблачно+29°C60 %749 мм2.5 м/с2 %
  • 18июля
    Четверг
    +21°
    +36°
    Практически безоблачно
    ВремяПогодаТемператураВлажностьДавлениеВетер, м/сВероятность осадков
    00:00Ясно и безоблачно+27°C65 %749 мм2.2 м/с2 %
    03:00Ясно и безоблачно+24°C76 %749 мм2.3 м/с2 %
    06:00Ясно и безоблачно+24°C75 %749 мм1.1 м/с2 %
    09:00Ясно и безоблачно+30°C51 %749 мм1.4 м/с2 %
    12:00Ясно и безоблачно+34°C38 %748 мм2.6 м/с2 %
    15:00Практически безоблачно+36°C35 %748 мм4.7 м/с22 %
    18:00Небольшая облачность+32°C43 %748 мм3.5 м/с37 %
    21:00Облачно с прояснениями+29°C56 %748 мм3.1 м/с7 %
  • 19июля
    Пятница
    +18°
    +30°
    Ясно и безоблачно
    ВремяПогодаТемператураВлажностьДавлениеВетер, м/сВероятность осадков
    00:00Небольшая облачность+25°C67 %747 мм4.6 м/с3 %
    03:00Практически безоблачно+23°C63 %747 мм3.9 м/с6 %
    06:00Ясно и безоблачно+22°C61 %747 мм3.2 м/с8 %
    09:00Ясно и безоблачно+26°C50 %748 мм4.5 м/с11 %
    12:00Ясно и безоблачно+28°C39 %747 мм4.9 м/с20 %
    15:00Ясно и безоблачно+30°C34 %747 мм5.9 м/с16 %
    18:00Ясно и безоблачно+28°C33 %746 мм5.8 м/с13 %
    21:00Облачно с прояснениями+25°C38 %747 мм4.1 м/с4 %
Мы используем cookies
Соглашаюсь